Kliftrans — PCDB — position and weather

sailwx.info

Track history (hours):
 
Tides and Currents Weather Stations Pressure Air Temp Water Temp Dewpoint Dewpoint Depression Visibility Wind Speed Wind Dir Waves Ship Positions

Kliftrans

Last reported at 2014-Aug-27 17:24 UTC. Time now 2014-Aug-29 10:24 UTC.
Position N 50°32' E 000°02'.

Length 88 m; draft 4.6 m.

Type: Cargo ship. MMSI: 245132000.

Date/timePositionNaut miles runAvg speedWind from/ knotsBaromVisibWave heightAir tempDewpointWater temp
2014-Aug-27 17:24N 50°32' E 000°02'1011.8
2014-Aug-27 16:32N 50°36' E 000°18'1111.7
2014-Aug-27 15:33N 50°39' E 000°35'1110.9
2014-Aug-27 14:33N 50°45' E 000°49'27 9.0
2014-Aug-27 11:34N 51°02' E 001°23'1010.5
2014-Aug-27 10:33N 51°09' E 001°35'1312.6
2014-Aug-27 09:33N 51°18' E 001°50'1312.6
2014-Aug-27 08:33N 51°28' E 002°02'64 9.2
2014-Aug-27 01:33N 52°03' E 003°29'9 9.4
2014-Aug-27 00:33N 52°03' E 003°44'1110.9
2014-Aug-26 23:33N 51°60' E 004°01'4 4.3
2014-Aug-26 22:33N 51°58' E 004°07'0 0.0
2014-Aug-26 21:28N 51°58' E 004°07'0 0.0
2014-Aug-26 20:28N 51°58' E 004°07'0 0.0
2014-Aug-26 19:31N 51°58' E 004°07'0 0.0
2014-Aug-26 18:34N 51°58' E 004°07'0 0.0
2014-Aug-26 17:27N 51°58' E 004°07'0 0.0
2014-Aug-26 16:33N 51°58' E 004°07'0 0.0
2014-Aug-26 15:15N 51°58' E 004°07'0 0.0
2014-Aug-26 14:33N 51°58' E 004°07'0 0.0
2014-Aug-26 13:33N 51°58' E 004°07'0 0.0
2014-Aug-26 12:30N 51°58' E 004°07'0 0.0
2014-Aug-26 11:30N 51°58' E 004°07'0 0.0
2014-Aug-26 10:33N 51°58' E 004°07'0 0.0
2014-Aug-26 09:33N 51°58' E 004°07'0 0.0
2014-Aug-26 08:33N 51°58' E 004°07'0 0.0
2014-Aug-26 07:30N 51°58' E 004°07'0 0.0
2014-Aug-26 06:33N 51°58' E 004°07'0 0.0
2014-Aug-26 05:30N 51°58' E 004°07'0 0.0
2014-Aug-26 04:33N 51°58' E 004°07'0 0.0
2014-Aug-26 03:30N 51°58' E 004°07'0 0.0
2014-Aug-26 02:18N 51°58' E 004°07'0 0.0
2014-Aug-26 01:33N 51°58' E 004°07'0 0.0
2014-Aug-26 00:30N 51°58' E 004°07'0 0.0
2014-Aug-25 23:24N 51°58' E 004°07'0 0.0
2014-Aug-25 22:30N 51°58' E 004°07'0 0.0
2014-Aug-25 21:30N 51°58' E 004°07'0 0.0
2014-Aug-25 20:33N 51°58' E 004°07'0 0.0
2014-Aug-25 19:33N 51°58' E 004°07'0 0.0
2014-Aug-25 18:33N 51°58' E 004°07'0 0.0
2014-Aug-25 17:27N 51°58' E 004°07'0 0.0
2014-Aug-25 16:33N 51°58' E 004°07'0 0.0
2014-Aug-25 15:33N 51°58' E 004°07'0 0.0
2014-Aug-25 14:33N 51°58' E 004°07'0 0.0
2014-Aug-25 13:33N 51°58' E 004°07'0 0.4
2014-Aug-25 12:33N 51°57' E 004°08'0 0.1
2014-Aug-25 11:33N 51°57' E 004°08'0 0.0
2014-Aug-25 10:32N 51°57' E 004°08'0 0.0
2014-Aug-25 09:32N 51°57' E 004°08'0 0.0
2014-Aug-25 08:32N 51°57' E 004°08'0 0.0
2014-Aug-25 07:32N 51°57' E 004°08'0 0.0
2014-Aug-25 06:32N 51°57' E 004°08'0 0.0
2014-Aug-25 05:32N 51°57' E 004°08'0 0.0
2014-Aug-25 04:29N 51°57' E 004°08'0 0.0
2014-Aug-25 03:32N 51°57' E 004°08'0 0.0
2014-Aug-25 02:32N 51°57' E 004°08'0 0.0
2014-Aug-25 01:32N 51°57' E 004°08'0 0.0
2014-Aug-25 00:32N 51°57' E 004°08'0 0.0
2014-Aug-24 23:29N 51°57' E 004°08'0 0.0
2014-Aug-24 22:29N 51°57' E 004°08'0 0.0
2014-Aug-24 21:32N 51°57' E 004°08'0 0.0
2014-Aug-24 20:32N 51°57' E 004°08'0 0.0
2014-Aug-24 19:32N 51°57' E 004°08'0 0.0
2014-Aug-24 18:32N 51°57' E 004°08'0 0.0
2014-Aug-24 17:26N 51°57' E 004°08'0 0.0
2014-Aug-24 16:32N 51°57' E 004°08'0 0.0
2014-Aug-24 15:26N 51°57' E 004°08'0 0.0
2014-Aug-24 14:32N 51°57' E 004°08'0 0.0
2014-Aug-24 13:32N 51°57' E 004°08'0 0.0
2014-Aug-24 12:32N 51°57' E 004°08'0 0.0
2014-Aug-24 11:23N 51°57' E 004°08'0 0.0
2014-Aug-24 10:32N 51°57' E 004°08'0 0.0
2014-Aug-24 09:26N 51°57' E 004°08'0 0.0
2014-Aug-24 08:32N 51°57' E 004°08'0 0.0
2014-Aug-24 07:32N 51°57' E 004°08'0 0.0
2014-Aug-24 06:22N 51°57' E 004°08'0 0.0
2014-Aug-24 05:31N 51°57' E 004°08'0 0.0
2014-Aug-24 04:31N 51°57' E 004°08'0 0.0
2014-Aug-24 03:25N 51°57' E 004°08'0 0.0
2014-Aug-24 02:31N 51°57' E 004°08'0 0.0
2014-Aug-24 01:31N 51°57' E 004°08'0 0.0
2014-Aug-24 00:31N 51°57' E 004°08'0 0.0
2014-Aug-23 23:31N 51°57' E 004°08'0 0.0
2014-Aug-23 22:25N 51°57' E 004°08'0 0.0
2014-Aug-23 21:31N 51°57' E 004°08'0 0.0
2014-Aug-23 20:31N 51°57' E 004°08'0 0.0
2014-Aug-23 19:31N 51°57' E 004°08'107 6.7
2014-Aug-23 03:33N 53°31' E 005°33'9 8.9
2014-Aug-23 02:33N 53°33' E 005°48'1010.3
2014-Aug-23 01:33N 53°36' E 006°04'1510.9
2014-Aug-23 00:10N 53°37' E 006°30'711.8
2014-Aug-22 23:33N 53°34' E 006°41'1212.4
2014-Aug-22 22:33N 53°25' E 006°56'6 6.0
2014-Aug-22 21:33N 53°19' E 006°58'1 1.1
2014-Aug-22 20:31N 53°20' E 006°56'0 0.0
2014-Aug-22 19:28N 53°20' E 006°56'0 0.0
2014-Aug-22 18:34N 53°20' E 006°56'0 0.0
2014-Aug-22 17:33N 53°20' E 006°56'0 0.0
2014-Aug-22 16:12N 53°20' E 006°56'0 0.0
2014-Aug-22 15:33N 53°20' E 006°56'0 0.0
2014-Aug-22 11:33N 53°20' E 006°56'0 0.0
2014-Aug-22 10:33N 53°20' E 006°56'0 0.0
2014-Aug-22 09:27N 53°20' E 006°56'0 0.0
2014-Aug-22 08:33N 53°20' E 006°56'0 0.0
2014-Aug-22 07:33N 53°20' E 006°56'0 0.0
2014-Aug-22 06:33N 53°20' E 006°56'0 0.0
2014-Aug-22 05:30N 53°20' E 006°56'0 0.0
2014-Aug-22 04:33N 53°20' E 006°56'0 0.0
2014-Aug-22 03:33N 53°20' E 006°56'0 0.0
2014-Aug-22 02:33N 53°20' E 006°56'0 0.0
2014-Aug-22 01:30N 53°20' E 006°56'0 0.0
2014-Aug-22 00:33N 53°20' E 006°56'0 0.0
2014-Aug-21 23:33N 53°20' E 006°56'0 0.0
2014-Aug-21 22:33N 53°20' E 006°56'0 0.0
2014-Aug-21 21:33N 53°20' E 006°56'0 0.0
2014-Aug-21 20:33N 53°20' E 006°56'0 0.0
2014-Aug-21 19:33N 53°20' E 006°56'0 0.0
2014-Aug-21 18:30N 53°20' E 006°56'0 0.0
2014-Aug-21 17:29N 53°20' E 006°56'0 0.0
2014-Aug-21 16:32N 53°20' E 006°56'0 0.0
2014-Aug-21 15:32N 53°20' E 006°56'0 0.0
2014-Aug-21 14:32N 53°20' E 006°56'0 0.0
2014-Aug-21 13:32N 53°20' E 006°56'0 0.0
2014-Aug-21 12:32N 53°20' E 006°56'0 0.0
2014-Aug-21 11:32N 53°20' E 006°56'0 0.0
2014-Aug-21 10:32N 53°20' E 006°56'0 0.0
2014-Aug-21 09:32N 53°20' E 006°56'0 0.0
2014-Aug-21 08:32N 53°20' E 006°56'0 0.0
2014-Aug-21 07:32N 53°20' E 006°56'0 0.0
2014-Aug-21 06:32N 53°20' E 006°56'0 0.0
2014-Aug-21 05:32N 53°20' E 006°56'0 0.0
2014-Aug-21 04:29N 53°20' E 006°56'0 0.0
2014-Aug-21 03:29N 53°20' E 006°56'0 0.0
2014-Aug-21 02:32N 53°20' E 006°56'0 0.0
2014-Aug-21 01:32N 53°20' E 006°56'0 0.0
2014-Aug-21 00:32N 53°20' E 006°56'0 0.0
2014-Aug-20 23:32N 53°20' E 006°56'0 0.0
2014-Aug-20 22:32N 53°20' E 006°56'0 0.0
2014-Aug-20 21:32N 53°20' E 006°56'0 0.0
2014-Aug-20 20:32N 53°20' E 006°56'0 0.0
2014-Aug-20 19:32N 53°20' E 006°56'0 0.0
2014-Aug-20 18:32N 53°20' E 006°56'0 0.0
2014-Aug-20 17:32N 53°20' E 006°56'0 0.0
2014-Aug-20 16:32N 53°20' E 006°56'0 0.0
2014-Aug-20 15:32N 53°20' E 006°56'0 0.0
2014-Aug-20 14:32N 53°20' E 006°56'0 0.0
2014-Aug-20 13:32N 53°20' E 006°56'0 0.0
2014-Aug-20 12:32N 53°20' E 006°56'0 0.0
2014-Aug-20 11:31N 53°20' E 006°56'0 0.0
2014-Aug-20 10:31N 53°20' E 006°56'0 0.0
2014-Aug-20 09:31N 53°20' E 006°56'0 0.0
2014-Aug-20 08:32N 53°20' E 006°56'0 0.0
2014-Aug-20 07:32N 53°20' E 006°56'0 0.0
2014-Aug-20 06:32N 53°20' E 006°56'0 0.0
2014-Aug-20 05:32N 53°20' E 006°56'0 0.0
2014-Aug-20 04:32N 53°20' E 006°56'0 0.0
2014-Aug-20 03:32N 53°20' E 006°56'0 0.0
2014-Aug-20 02:32N 53°20' E 006°56'0 0.0
2014-Aug-20 01:25N 53°20' E 006°56'0 0.0
2014-Aug-20 00:31N 53°20' E 006°56'0 0.0
2014-Aug-19 23:31N 53°20' E 006°56'0 0.0
2014-Aug-19 22:31N 53°20' E 006°56'0 0.0
2014-Aug-19 21:31N 53°20' E 006°56'0 0.0
2014-Aug-19 20:31N 53°20' E 006°56'0 0.0
2014-Aug-19 19:31N 53°20' E 006°56'0 0.0
2014-Aug-19 18:31N 53°20' E 006°56'0 0.0
2014-Aug-19 17:32N 53°20' E 006°56'0 0.0
2014-Aug-19 16:31N 53°20' E 006°56'0 0.0
2014-Aug-19 15:31N 53°20' E 006°56'0 0.0
2014-Aug-19 14:28N 53°20' E 006°56'0 0.0
2014-Aug-19 13:31N 53°20' E 006°56'0 0.0
2014-Aug-19 12:31N 53°20' E 006°56'0 0.0
2014-Aug-19 11:31N 53°20' E 006°56'0 0.0
2014-Aug-19 10:28N 53°20' E 006°56'0 0.0
2014-Aug-19 09:31N 53°20' E 006°56'0 0.0
2014-Aug-19 08:28N 53°20' E 006°56'0 0.0
2014-Aug-19 07:31N 53°20' E 006°56'0 0.0
2014-Aug-19 06:31N 53°20' E 006°56'0 0.0
2014-Aug-19 05:31N 53°20' E 006°56'0 0.0
2014-Aug-19 04:31N 53°20' E 006°56'0 0.0
2014-Aug-19 03:28N 53°20' E 006°56'0 0.0
2014-Aug-19 02:28N 53°20' E 006°56'0 0.0
2014-Aug-19 01:28N 53°20' E 006°56'0 0.0
2014-Aug-19 00:28N 53°20' E 006°56'0 0.0
2014-Aug-18 23:25N 53°20' E 006°56'0 0.0
2014-Aug-18 22:07N 53°20' E 006°56'0 0.0
2014-Aug-18 21:28N 53°20' E 006°56'0 0.0
2014-Aug-18 20:31N 53°20' E 006°56'0 0.0
2014-Aug-18 19:28N 53°20' E 006°56'0 0.0
2014-Aug-18 18:28N 53°20' E 006°56'0 0.0
2014-Aug-18 17:33N 53°20' E 006°56'0 0.0
2014-Aug-18 16:33N 53°20' E 006°56'0 0.0
2014-Aug-18 15:33N 53°20' E 006°56'0 0.0
2014-Aug-18 14:30N 53°20' E 006°56'0 0.0
2014-Aug-18 13:33N 53°20' E 006°56'0 0.0
2014-Aug-18 12:33N 53°20' E 006°56'0 0.0
2014-Aug-18 11:33N 53°20' E 006°56'0 0.0
2014-Aug-18 10:33N 53°20' E 006°56'0 0.0
2014-Aug-18 09:30N 53°20' E 006°56'0 0.0
2014-Aug-18 08:33N 53°20' E 006°56'0 0.0
2014-Aug-18 07:30N 53°20' E 006°56'0 0.0
2014-Aug-18 06:33N 53°20' E 006°56'0 0.0
2014-Aug-18 05:33N 53°20' E 006°56'0 0.0
2014-Aug-18 04:33N 53°20' E 006°56'0 0.1
2014-Aug-18 03:33N 53°20' E 006°56'0 0.0
2014-Aug-18 02:30N 53°20' E 006°56'0 0.0
2014-Aug-18 01:33N 53°20' E 006°56'0 0.0
2014-Aug-18 00:21N 53°20' E 006°56'0 0.0
2014-Aug-17 18:33N 53°20' E 006°56'0 0.0
2014-Aug-17 17:32N 53°20' E 006°56'  
Track history (hours):
 
Tides and Currents Weather Stations Pressure Air Temp Water Temp Dewpoint Dewpoint Depression Visibility Wind Speed Wind Dir Waves Ship Positions

Kliftrans

Last reported at 2014-Aug-27 17:24 UTC. Time now 2014-Aug-29 10:24 UTC.
Position N 50°32' E 000°02'.

Length 88 m; draft 4.6 m.

Type: Cargo ship. MMSI: 245132000.

Date/timePositionNaut miles runAvg speedWind from/ knotsBaromVisibWave heightAir tempDewpointWater temp
2014-Aug-27 17:24N 50°32' E 000°02'1011.8
2014-Aug-27 16:32N 50°36' E 000°18'1111.7
2014-Aug-27 15:33N 50°39' E 000°35'1110.9
2014-Aug-27 14:33N 50°45' E 000°49'27 9.0
2014-Aug-27 11:34N 51°02' E 001°23'1010.5
2014-Aug-27 10:33N 51°09' E 001°35'1312.6
2014-Aug-27 09:33N 51°18' E 001°50'1312.6
2014-Aug-27 08:33N 51°28' E 002°02'64 9.2
2014-Aug-27 01:33N 52°03' E 003°29'9 9.4
2014-Aug-27 00:33N 52°03' E 003°44'1110.9
2014-Aug-26 23:33N 51°60' E 004°01'4 4.3
2014-Aug-26 22:33N 51°58' E 004°07'0 0.0
2014-Aug-26 21:28N 51°58' E 004°07'0 0.0
2014-Aug-26 20:28N 51°58' E 004°07'0 0.0
2014-Aug-26 19:31N 51°58' E 004°07'0 0.0
2014-Aug-26 18:34N 51°58' E 004°07'0 0.0
2014-Aug-26 17:27N 51°58' E 004°07'0 0.0
2014-Aug-26 16:33N 51°58' E 004°07'0 0.0
2014-Aug-26 15:15N 51°58' E 004°07'0 0.0
2014-Aug-26 14:33N 51°58' E 004°07'0 0.0
2014-Aug-26 13:33N 51°58' E 004°07'0 0.0
2014-Aug-26 12:30N 51°58' E 004°07'0 0.0
2014-Aug-26 11:30N 51°58' E 004°07'0 0.0
2014-Aug-26 10:33N 51°58' E 004°07'0 0.0
2014-Aug-26 09:33N 51°58' E 004°07'0 0.0
2014-Aug-26 08:33N 51°58' E 004°07'0 0.0
2014-Aug-26 07:30N 51°58' E 004°07'0 0.0
2014-Aug-26 06:33N 51°58' E 004°07'0 0.0
2014-Aug-26 05:30N 51°58' E 004°07'0 0.0
2014-Aug-26 04:33N 51°58' E 004°07'0 0.0
2014-Aug-26 03:30N 51°58' E 004°07'0 0.0
2014-Aug-26 02:18N 51°58' E 004°07'0 0.0
2014-Aug-26 01:33N 51°58' E 004°07'0 0.0
2014-Aug-26 00:30N 51°58' E 004°07'0 0.0
2014-Aug-25 23:24N 51°58' E 004°07'0 0.0
2014-Aug-25 22:30N 51°58' E 004°07'0 0.0
2014-Aug-25 21:30N 51°58' E 004°07'0 0.0
2014-Aug-25 20:33N 51°58' E 004°07'0 0.0
2014-Aug-25 19:33N 51°58' E 004°07'0 0.0
2014-Aug-25 18:33N 51°58' E 004°07'0 0.0
2014-Aug-25 17:27N 51°58' E 004°07'0 0.0
2014-Aug-25 16:33N 51°58' E 004°07'0 0.0
2014-Aug-25 15:33N 51°58' E 004°07'0 0.0
2014-Aug-25 14:33N 51°58' E 004°07'0 0.0
2014-Aug-25 13:33N 51°58' E 004°07'0 0.4
2014-Aug-25 12:33N 51°57' E 004°08'0 0.1
2014-Aug-25 11:33N 51°57' E 004°08'0 0.0
2014-Aug-25 10:32N 51°57' E 004°08'0 0.0
2014-Aug-25 09:32N 51°57' E 004°08'0 0.0
2014-Aug-25 08:32N 51°57' E 004°08'0 0.0
2014-Aug-25 07:32N 51°57' E 004°08'0 0.0
2014-Aug-25 06:32N 51°57' E 004°08'0 0.0
2014-Aug-25 05:32N 51°57' E 004°08'0 0.0
2014-Aug-25 04:29N 51°57' E 004°08'0 0.0
2014-Aug-25 03:32N 51°57' E 004°08'0 0.0
2014-Aug-25 02:32N 51°57' E 004°08'0 0.0
2014-Aug-25 01:32N 51°57' E 004°08'0 0.0
2014-Aug-25 00:32N 51°57' E 004°08'0 0.0
2014-Aug-24 23:29N 51°57' E 004°08'0 0.0
2014-Aug-24 22:29N 51°57' E 004°08'0 0.0
2014-Aug-24 21:32N 51°57' E 004°08'0 0.0
2014-Aug-24 20:32N 51°57' E 004°08'0 0.0
2014-Aug-24 19:32N 51°57' E 004°08'0 0.0
2014-Aug-24 18:32N 51°57' E 004°08'0 0.0
2014-Aug-24 17:26N 51°57' E 004°08'0 0.0
2014-Aug-24 16:32N 51°57' E 004°08'0 0.0
2014-Aug-24 15:26N 51°57' E 004°08'0 0.0
2014-Aug-24 14:32N 51°57' E 004°08'0 0.0
2014-Aug-24 13:32N 51°57' E 004°08'0 0.0
2014-Aug-24 12:32N 51°57' E 004°08'0 0.0
2014-Aug-24 11:23N 51°57' E 004°08'0 0.0
2014-Aug-24 10:32N 51°57' E 004°08'0 0.0
2014-Aug-24 09:26N 51°57' E 004°08'0 0.0
2014-Aug-24 08:32N 51°57' E 004°08'0 0.0
2014-Aug-24 07:32N 51°57' E 004°08'0 0.0
2014-Aug-24 06:22N 51°57' E 004°08'0 0.0
2014-Aug-24 05:31N 51°57' E 004°08'0 0.0
2014-Aug-24 04:31N 51°57' E 004°08'0 0.0
2014-Aug-24 03:25N 51°57' E 004°08'0 0.0
2014-Aug-24 02:31N 51°57' E 004°08'0 0.0
2014-Aug-24 01:31N 51°57' E 004°08'0 0.0
2014-Aug-24 00:31N 51°57' E 004°08'0 0.0
2014-Aug-23 23:31N 51°57' E 004°08'0 0.0
2014-Aug-23 22:25N 51°57' E 004°08'0 0.0
2014-Aug-23 21:31N 51°57' E 004°08'0 0.0
2014-Aug-23 20:31N 51°57' E 004°08'0 0.0
2014-Aug-23 19:31N 51°57' E 004°08'107 6.7
2014-Aug-23 03:33N 53°31' E 005°33'9 8.9
2014-Aug-23 02:33N 53°33' E 005°48'1010.3
2014-Aug-23 01:33N 53°36' E 006°04'1510.9
2014-Aug-23 00:10N 53°37' E 006°30'711.8
2014-Aug-22 23:33N 53°34' E 006°41'1212.4
2014-Aug-22 22:33N 53°25' E 006°56'6 6.0
2014-Aug-22 21:33N 53°19' E 006°58'1 1.1
2014-Aug-22 20:31N 53°20' E 006°56'0 0.0
2014-Aug-22 19:28N 53°20' E 006°56'0 0.0
2014-Aug-22 18:34N 53°20' E 006°56'0 0.0
2014-Aug-22 17:33N 53°20' E 006°56'0 0.0
2014-Aug-22 16:12N 53°20' E 006°56'0 0.0
2014-Aug-22 15:33N 53°20' E 006°56'0 0.0
2014-Aug-22 11:33N 53°20' E 006°56'0 0.0
2014-Aug-22 10:33N 53°20' E 006°56'0 0.0
2014-Aug-22 09:27N 53°20' E 006°56'0 0.0
2014-Aug-22 08:33N 53°20' E 006°56'0 0.0
2014-Aug-22 07:33N 53°20' E 006°56'0 0.0
2014-Aug-22 06:33N 53°20' E 006°56'0 0.0
2014-Aug-22 05:30N 53°20' E 006°56'0 0.0
2014-Aug-22 04:33N 53°20' E 006°56'0 0.0
2014-Aug-22 03:33N 53°20' E 006°56'0 0.0
2014-Aug-22 02:33N 53°20' E 006°56'0 0.0
2014-Aug-22 01:30N 53°20' E 006°56'0 0.0
2014-Aug-22 00:33N 53°20' E 006°56'0 0.0
2014-Aug-21 23:33N 53°20' E 006°56'0 0.0
2014-Aug-21 22:33N 53°20' E 006°56'0 0.0
2014-Aug-21 21:33N 53°20' E 006°56'0 0.0
2014-Aug-21 20:33N 53°20' E 006°56'0 0.0
2014-Aug-21 19:33N 53°20' E 006°56'0 0.0
2014-Aug-21 18:30N 53°20' E 006°56'0 0.0
2014-Aug-21 17:29N 53°20' E 006°56'0 0.0
2014-Aug-21 16:32N 53°20' E 006°56'0 0.0
2014-Aug-21 15:32N 53°20' E 006°56'0 0.0
2014-Aug-21 14:32N 53°20' E 006°56'0 0.0
2014-Aug-21 13:32N 53°20' E 006°56'0 0.0
2014-Aug-21 12:32N 53°20' E 006°56'0 0.0
2014-Aug-21 11:32N 53°20' E 006°56'0 0.0
2014-Aug-21 10:32N 53°20' E 006°56'0 0.0
2014-Aug-21 09:32N 53°20' E 006°56'0 0.0
2014-Aug-21 08:32N 53°20' E 006°56'0 0.0
2014-Aug-21 07:32N 53°20' E 006°56'0 0.0
2014-Aug-21 06:32N 53°20' E 006°56'0 0.0
2014-Aug-21 05:32N 53°20' E 006°56'0 0.0
2014-Aug-21 04:29N 53°20' E 006°56'0 0.0
2014-Aug-21 03:29N 53°20' E 006°56'0 0.0
2014-Aug-21 02:32N 53°20' E 006°56'0 0.0
2014-Aug-21 01:32N 53°20' E 006°56'0 0.0
2014-Aug-21 00:32N 53°20' E 006°56'0 0.0
2014-Aug-20 23:32N 53°20' E 006°56'0 0.0
2014-Aug-20 22:32N 53°20' E 006°56'0 0.0
2014-Aug-20 21:32N 53°20' E 006°56'0 0.0
2014-Aug-20 20:32N 53°20' E 006°56'0 0.0
2014-Aug-20 19:32N 53°20' E 006°56'0 0.0
2014-Aug-20 18:32N 53°20' E 006°56'0 0.0
2014-Aug-20 17:32N 53°20' E 006°56'0 0.0
2014-Aug-20 16:32N 53°20' E 006°56'0 0.0
2014-Aug-20 15:32N 53°20' E 006°56'0 0.0
2014-Aug-20 14:32N 53°20' E 006°56'0 0.0
2014-Aug-20 13:32N 53°20' E 006°56'0 0.0
2014-Aug-20 12:32N 53°20' E 006°56'0 0.0
2014-Aug-20 11:31N 53°20' E 006°56'0 0.0
2014-Aug-20 10:31N 53°20' E 006°56'0 0.0
2014-Aug-20 09:31N 53°20' E 006°56'0 0.0
2014-Aug-20 08:32N 53°20' E 006°56'0 0.0
2014-Aug-20 07:32N 53°20' E 006°56'0 0.0
2014-Aug-20 06:32N 53°20' E 006°56'0 0.0
2014-Aug-20 05:32N 53°20' E 006°56'0 0.0
2014-Aug-20 04:32N 53°20' E 006°56'0 0.0
2014-Aug-20 03:32N 53°20' E 006°56'0 0.0
2014-Aug-20 02:32N 53°20' E 006°56'0 0.0
2014-Aug-20 01:25N 53°20' E 006°56'0 0.0
2014-Aug-20 00:31N 53°20' E 006°56'0 0.0
2014-Aug-19 23:31N 53°20' E 006°56'0 0.0
2014-Aug-19 22:31N 53°20' E 006°56'0 0.0
2014-Aug-19 21:31N 53°20' E 006°56'0 0.0
2014-Aug-19 20:31N 53°20' E 006°56'0 0.0
2014-Aug-19 19:31N 53°20' E 006°56'0 0.0
2014-Aug-19 18:31N 53°20' E 006°56'0 0.0
2014-Aug-19 17:32N 53°20' E 006°56'0 0.0
2014-Aug-19 16:31N 53°20' E 006°56'0 0.0
2014-Aug-19 15:31N 53°20' E 006°56'0 0.0
2014-Aug-19 14:28N 53°20' E 006°56'0 0.0
2014-Aug-19 13:31N 53°20' E 006°56'0 0.0
2014-Aug-19 12:31N 53°20' E 006°56'0 0.0
2014-Aug-19 11:31N 53°20' E 006°56'0 0.0
2014-Aug-19 10:28N 53°20' E 006°56'0 0.0
2014-Aug-19 09:31N 53°20' E 006°56'0 0.0
2014-Aug-19 08:28N 53°20' E 006°56'0 0.0
2014-Aug-19 07:31N 53°20' E 006°56'0 0.0
2014-Aug-19 06:31N 53°20' E 006°56'0 0.0
2014-Aug-19 05:31N 53°20' E 006°56'0 0.0
2014-Aug-19 04:31N 53°20' E 006°56'0 0.0
2014-Aug-19 03:28N 53°20' E 006°56'0 0.0
2014-Aug-19 02:28N 53°20' E 006°56'0 0.0
2014-Aug-19 01:28N 53°20' E 006°56'0 0.0
2014-Aug-19 00:28N 53°20' E 006°56'0 0.0
2014-Aug-18 23:25N 53°20' E 006°56'0 0.0
2014-Aug-18 22:07N 53°20' E 006°56'0 0.0
2014-Aug-18 21:28N 53°20' E 006°56'0 0.0
2014-Aug-18 20:31N 53°20' E 006°56'0 0.0
2014-Aug-18 19:28N 53°20' E 006°56'0 0.0
2014-Aug-18 18:28N 53°20' E 006°56'0 0.0
2014-Aug-18 17:33N 53°20' E 006°56'0 0.0
2014-Aug-18 16:33N 53°20' E 006°56'0 0.0
2014-Aug-18 15:33N 53°20' E 006°56'0 0.0
2014-Aug-18 14:30N 53°20' E 006°56'0 0.0
2014-Aug-18 13:33N 53°20' E 006°56'0 0.0
2014-Aug-18 12:33N 53°20' E 006°56'0 0.0
2014-Aug-18 11:33N 53°20' E 006°56'0 0.0
2014-Aug-18 10:33N 53°20' E 006°56'0 0.0
2014-Aug-18 09:30N 53°20' E 006°56'0 0.0
2014-Aug-18 08:33N 53°20' E 006°56'0 0.0
2014-Aug-18 07:30N 53°20' E 006°56'0 0.0
2014-Aug-18 06:33N 53°20' E 006°56'0 0.0
2014-Aug-18 05:33N 53°20' E 006°56'0 0.0
2014-Aug-18 04:33N 53°20' E 006°56'0 0.1
2014-Aug-18 03:33N 53°20' E 006°56'0 0.0
2014-Aug-18 02:30N 53°20' E 006°56'0 0.0
2014-Aug-18 01:33N 53°20' E 006°56'0 0.0
2014-Aug-18 00:21N 53°20' E 006°56'0 0.0
2014-Aug-17 18:33N 53°20' E 006°56'0 0.0
2014-Aug-17 17:32N 53°20' E 006°56'  

Dump ship's entire track history